sensor_id;sensor_type;location;lat;lon;timestamp;P1;durP1;ratioP1;P2;durP2;ratioP2
20042;SDS011;10182;52.896;6.496;2022-12-18T00:00:15;88.90;;;38.57;;
20042;SDS011;10182;52.896;6.496;2022-12-18T00:05:18;87.00;;;38.17;;
20042;SDS011;10182;52.896;6.496;2022-12-18T00:10:20;84.80;;;37.77;;
20042;SDS011;10182;52.896;6.496;2022-12-18T00:15:23;81.77;;;35.80;;
20042;SDS011;10182;52.896;6.496;2022-12-18T00:20:27;74.73;;;35.63;;
20042;SDS011;10182;52.896;6.496;2022-12-18T00:25:28;70.87;;;34.77;;
20042;SDS011;10182;52.896;6.496;2022-12-18T00:30:30;95.60;;;40.50;;
20042;SDS011;10182;52.896;6.496;2022-12-18T00:35:33;95.97;;;41.03;;
20042;SDS011;10182;52.896;6.496;2022-12-18T00:40:35;83.97;;;37.73;;
20042;SDS011;10182;52.896;6.496;2022-12-18T00:45:37;83.10;;;37.30;;
20042;SDS011;10182;52.896;6.496;2022-12-18T00:50:40;82.00;;;36.53;;
20042;SDS011;10182;52.896;6.496;2022-12-18T00:55:42;82.60;;;36.97;;
20042;SDS011;10182;52.896;6.496;2022-12-18T01:00:44;83.03;;;36.17;;
20042;SDS011;10182;52.896;6.496;2022-12-18T01:05:47;88.30;;;37.57;;
20042;SDS011;10182;52.896;6.496;2022-12-18T01:10:49;78.07;;;36.93;;
20042;SDS011;10182;52.896;6.496;2022-12-18T01:15:50;98.83;;;40.10;;
20042;SDS011;10182;52.896;6.496;2022-12-18T01:20:54;93.23;;;38.90;;
20042;SDS011;10182;52.896;6.496;2022-12-18T01:25:55;91.87;;;39.43;;
20042;SDS011;10182;52.896;6.496;2022-12-18T01:31:08;86.10;;;36.80;;
20042;SDS011;10182;52.896;6.496;2022-12-18T01:36:16;89.40;;;38.53;;
20042;SDS011;10182;52.896;6.496;2022-12-18T01:41:20;85.13;;;39.90;;
20042;SDS011;10182;52.896;6.496;2022-12-18T01:46:23;82.97;;;38.27;;
20042;SDS011;10182;52.896;6.496;2022-12-18T01:51:27;89.70;;;40.13;;
20042;SDS011;10182;52.896;6.496;2022-12-18T01:56:30;78.30;;;38.30;;
20042;SDS011;10182;52.896;6.496;2022-12-18T02:01:32;95.30;;;40.03;;
20042;SDS011;10182;52.896;6.496;2022-12-18T02:06:36;95.93;;;40.60;;
20042;SDS011;10182;52.896;6.496;2022-12-18T02:11:44;93.73;;;42.30;;
20042;SDS011;10182;52.896;6.496;2022-12-18T02:16:56;84.73;;;40.63;;
20042;SDS011;10182;52.896;6.496;2022-12-18T02:22:11;84.67;;;38.63;;
20042;SDS011;10182;52.896;6.496;2022-12-18T02:27:22;84.07;;;41.03;;
20042;SDS011;10182;52.896;6.496;2022-12-18T02:32:24;87.47;;;39.27;;
20042;SDS011;10182;52.896;6.496;2022-12-18T02:37:28;72.67;;;39.33;;
20042;SDS011;10182;52.896;6.496;2022-12-18T02:42:33;80.40;;;36.80;;
20042;SDS011;10182;52.896;6.496;2022-12-18T02:47:36;77.13;;;38.30;;
20042;SDS011;10182;52.896;6.496;2022-12-18T02:52:41;88.50;;;37.83;;
20042;SDS011;10182;52.896;6.496;2022-12-18T02:57:51;84.47;;;37.70;;
20042;SDS011;10182;52.896;6.496;2022-12-18T03:02:56;80.03;;;36.40;;
20042;SDS011;10182;52.896;6.496;2022-12-18T03:08:03;74.27;;;35.27;;
20042;SDS011;10182;52.896;6.496;2022-12-18T03:13:12;80.90;;;36.50;;
20042;SDS011;10182;52.896;6.496;2022-12-18T03:18:17;70.97;;;31.53;;
20042;SDS011;10182;52.896;6.496;2022-12-18T03:23:23;85.40;;;37.07;;
20042;SDS011;10182;52.896;6.496;2022-12-18T03:28:30;72.03;;;33.50;;
20042;SDS011;10182;52.896;6.496;2022-12-18T03:33:35;70.77;;;33.17;;
20042;SDS011;10182;52.896;6.496;2022-12-18T03:38:40;76.07;;;32.87;;
20042;SDS011;10182;52.896;6.496;2022-12-18T03:43:46;85.33;;;36.23;;
20042;SDS011;10182;52.896;6.496;2022-12-18T03:48:56;80.90;;;35.87;;
20042;SDS011;10182;52.896;6.496;2022-12-18T03:54:03;71.73;;;33.77;;
20042;SDS011;10182;52.896;6.496;2022-12-18T03:59:10;76.07;;;34.10;;
20042;SDS011;10182;52.896;6.496;2022-12-18T04:04:15;73.97;;;34.77;;
20042;SDS011;10182;52.896;6.496;2022-12-18T04:09:19;75.53;;;34.73;;
20042;SDS011;10182;52.896;6.496;2022-12-18T04:14:23;74.00;;;33.20;;
20042;SDS011;10182;52.896;6.496;2022-12-18T04:19:25;69.33;;;35.20;;
20042;SDS011;10182;52.896;6.496;2022-12-18T04:24:26;65.53;;;31.57;;
20042;SDS011;10182;52.896;6.496;2022-12-18T04:29:29;73.77;;;33.87;;
20042;SDS011;10182;52.896;6.496;2022-12-18T04:34:31;61.63;;;30.70;;
20042;SDS011;10182;52.896;6.496;2022-12-18T04:39:32;65.27;;;30.13;;
20042;SDS011;10182;52.896;6.496;2022-12-18T04:44:37;65.67;;;30.53;;
20042;SDS011;10182;52.896;6.496;2022-12-18T04:49:38;60.93;;;30.40;;
20042;SDS011;10182;52.896;6.496;2022-12-18T04:54:40;65.70;;;31.13;;
20042;SDS011;10182;52.896;6.496;2022-12-18T04:59:43;55.73;;;28.87;;
20042;SDS011;10182;52.896;6.496;2022-12-18T05:04:45;58.33;;;29.10;;
20042;SDS011;10182;52.896;6.496;2022-12-18T05:09:46;49.10;;;28.43;;
20042;SDS011;10182;52.896;6.496;2022-12-18T05:14:49;56.70;;;29.97;;
20042;SDS011;10182;52.896;6.496;2022-12-18T05:19:51;54.97;;;27.73;;
20042;SDS011;10182;52.896;6.496;2022-12-18T05:24:53;52.87;;;27.67;;
20042;SDS011;10182;52.896;6.496;2022-12-18T05:29:56;56.73;;;26.50;;
20042;SDS011;10182;52.896;6.496;2022-12-18T05:34:57;43.53;;;24.73;;
20042;SDS011;10182;52.896;6.496;2022-12-18T05:39:59;48.17;;;26.10;;
20042;SDS011;10182;52.896;6.496;2022-12-18T05:45:02;51.40;;;24.60;;
20042;SDS011;10182;52.896;6.496;2022-12-18T05:50:05;48.53;;;25.37;;
20042;SDS011;10182;52.896;6.496;2022-12-18T05:55:08;45.60;;;22.47;;
20042;SDS011;10182;52.896;6.496;2022-12-18T06:00:12;42.43;;;24.37;;
20042;SDS011;10182;52.896;6.496;2022-12-18T06:05:14;48.77;;;23.70;;
20042;SDS011;10182;52.896;6.496;2022-12-18T06:10:16;42.57;;;23.27;;
20042;SDS011;10182;52.896;6.496;2022-12-18T06:15:19;44.87;;;24.23;;
20042;SDS011;10182;52.896;6.496;2022-12-18T06:20:21;41.47;;;22.10;;
20042;SDS011;10182;52.896;6.496;2022-12-18T06:25:23;41.27;;;23.13;;
20042;SDS011;10182;52.896;6.496;2022-12-18T06:30:26;43.33;;;24.47;;
20042;SDS011;10182;52.896;6.496;2022-12-18T06:35:27;42.97;;;22.80;;
20042;SDS011;10182;52.896;6.496;2022-12-18T06:40:29;42.27;;;23.23;;
20042;SDS011;10182;52.896;6.496;2022-12-18T06:45:32;50.00;;;23.50;;
20042;SDS011;10182;52.896;6.496;2022-12-18T06:50:34;42.30;;;24.37;;
20042;SDS011;10182;52.896;6.496;2022-12-18T06:55:35;37.13;;;21.77;;
20042;SDS011;10182;52.896;6.496;2022-12-18T07:00:38;38.67;;;25.20;;
20042;SDS011;10182;52.896;6.496;2022-12-18T07:05:40;37.33;;;22.47;;
20042;SDS011;10182;52.896;6.496;2022-12-18T07:10:42;38.50;;;22.93;;
20042;SDS011;10182;52.896;6.496;2022-12-18T07:15:46;35.57;;;22.33;;
20042;SDS011;10182;52.896;6.496;2022-12-18T07:20:47;36.57;;;21.47;;
20042;SDS011;10182;52.896;6.496;2022-12-18T07:25:49;47.37;;;26.63;;
20042;SDS011;10182;52.896;6.496;2022-12-18T07:30:52;45.13;;;22.90;;
20042;SDS011;10182;52.896;6.496;2022-12-18T07:35:53;43.17;;;24.20;;
20042;SDS011;10182;52.896;6.496;2022-12-18T07:40:59;46.17;;;24.33;;
20042;SDS011;10182;52.896;6.496;2022-12-18T07:46:03;39.67;;;22.40;;
20042;SDS011;10182;52.896;6.496;2022-12-18T07:51:05;38.67;;;21.47;;
20042;SDS011;10182;52.896;6.496;2022-12-18T07:56:09;41.90;;;23.13;;
20042;SDS011;10182;52.896;6.496;2022-12-18T08:01:13;42.93;;;24.97;;
20042;SDS011;10182;52.896;6.496;2022-12-18T08:06:15;38.77;;;21.97;;
20042;SDS011;10182;52.896;6.496;2022-12-18T08:11:16;38.27;;;21.47;;
20042;SDS011;10182;52.896;6.496;2022-12-18T08:16:21;38.43;;;22.50;;
20042;SDS011;10182;52.896;6.496;2022-12-18T08:21:24;35.90;;;20.73;;
20042;SDS011;10182;52.896;6.496;2022-12-18T08:26:28;33.67;;;19.97;;
20042;SDS011;10182;52.896;6.496;2022-12-18T08:31:33;31.67;;;18.87;;
20042;SDS011;10182;52.896;6.496;2022-12-18T08:36:34;30.30;;;18.90;;
20042;SDS011;10182;52.896;6.496;2022-12-18T08:41:36;32.87;;;20.20;;
20042;SDS011;10182;52.896;6.496;2022-12-18T08:46:40;29.87;;;19.10;;
20042;SDS011;10182;52.896;6.496;2022-12-18T08:51:43;30.07;;;19.03;;
20042;SDS011;10182;52.896;6.496;2022-12-18T08:56:44;27.33;;;17.27;;
20042;SDS011;10182;52.896;6.496;2022-12-18T09:01:47;31.70;;;19.20;;
20042;SDS011;10182;52.896;6.496;2022-12-18T09:06:49;27.87;;;18.30;;
20042;SDS011;10182;52.896;6.496;2022-12-18T09:11:51;27.77;;;17.90;;
20042;SDS011;10182;52.896;6.496;2022-12-18T09:16:54;29.27;;;18.00;;
20042;SDS011;10182;52.896;6.496;2022-12-18T09:21:55;29.43;;;18.30;;
20042;SDS011;10182;52.896;6.496;2022-12-18T09:26:57;26.77;;;16.53;;
20042;SDS011;10182;52.896;6.496;2022-12-18T09:32:00;23.73;;;14.90;;
20042;SDS011;10182;52.896;6.496;2022-12-18T09:37:02;23.17;;;15.50;;
20042;SDS011;10182;52.896;6.496;2022-12-18T09:42:04;20.40;;;14.10;;
20042;SDS011;10182;52.896;6.496;2022-12-18T09:47:09;20.17;;;14.87;;
20042;SDS011;10182;52.896;6.496;2022-12-18T09:52:16;20.50;;;14.60;;
20042;SDS011;10182;52.896;6.496;2022-12-18T09:57:23;20.13;;;12.97;;
20042;SDS011;10182;52.896;6.496;2022-12-18T10:02:30;20.67;;;14.40;;
20042;SDS011;10182;52.896;6.496;2022-12-18T10:07:35;20.00;;;12.90;;
20042;SDS011;10182;52.896;6.496;2022-12-18T10:12:46;18.53;;;12.83;;
20042;SDS011;10182;52.896;6.496;2022-12-18T10:17:59;17.63;;;11.90;;
20042;SDS011;10182;52.896;6.496;2022-12-18T10:23:17;14.23;;;10.47;;
20042;SDS011;10182;52.896;6.496;2022-12-18T10:28:24;15.33;;;11.30;;
20042;SDS011;10182;52.896;6.496;2022-12-18T10:33:29;16.63;;;10.87;;
20042;SDS011;10182;52.896;6.496;2022-12-18T10:38:32;15.87;;;9.90;;
20042;SDS011;10182;52.896;6.496;2022-12-18T10:43:34;13.10;;;10.20;;
20042;SDS011;10182;52.896;6.496;2022-12-18T10:48:39;14.73;;;10.17;;
20042;SDS011;10182;52.896;6.496;2022-12-18T10:53:51;12.00;;;9.37;;
20042;SDS011;10182;52.896;6.496;2022-12-18T10:58:57;13.00;;;9.07;;
20042;SDS011;10182;52.896;6.496;2022-12-18T11:04:07;10.80;;;8.20;;
20042;SDS011;10182;52.896;6.496;2022-12-18T11:09:18;9.87;;;8.40;;
20042;SDS011;10182;52.896;6.496;2022-12-18T11:14:23;13.80;;;8.67;;
20042;SDS011;10182;52.896;6.496;2022-12-18T11:19:30;9.33;;;7.87;;
20042;SDS011;10182;52.896;6.496;2022-12-18T11:24:34;10.43;;;7.40;;
20042;SDS011;10182;52.896;6.496;2022-12-18T11:29:37;10.43;;;7.20;;
20042;SDS011;10182;52.896;6.496;2022-12-18T11:34:42;11.33;;;7.70;;
20042;SDS011;10182;52.896;6.496;2022-12-18T11:39:49;9.90;;;7.30;;
20042;SDS011;10182;52.896;6.496;2022-12-18T11:44:57;8.93;;;7.37;;
20042;SDS011;10182;52.896;6.496;2022-12-18T11:50:09;7.07;;;5.93;;
20042;SDS011;10182;52.896;6.496;2022-12-18T11:55:16;11.03;;;6.57;;
20042;SDS011;10182;52.896;6.496;2022-12-18T12:00:25;8.07;;;6.47;;
20042;SDS011;10182;52.896;6.496;2022-12-18T12:05:35;7.13;;;6.37;;
20042;SDS011;10182;52.896;6.496;2022-12-18T12:10:48;8.10;;;5.90;;
20042;SDS011;10182;52.896;6.496;2022-12-18T12:16:00;9.20;;;6.40;;
20042;SDS011;10182;52.896;6.496;2022-12-18T12:21:15;11.43;;;7.13;;
20042;SDS011;10182;52.896;6.496;2022-12-18T12:26:24;8.97;;;6.23;;
20042;SDS011;10182;52.896;6.496;2022-12-18T12:31:43;9.97;;;6.83;;
20042;SDS011;10182;52.896;6.496;2022-12-18T12:37:03;10.67;;;7.60;;
20042;SDS011;10182;52.896;6.496;2022-12-18T12:42:18;8.17;;;6.47;;
20042;SDS011;10182;52.896;6.496;2022-12-18T12:47:43;7.90;;;6.40;;
20042;SDS011;10182;52.896;6.496;2022-12-18T12:52:51;9.37;;;7.10;;
20042;SDS011;10182;52.896;6.496;2022-12-18T12:57:56;9.03;;;6.50;;
20042;SDS011;10182;52.896;6.496;2022-12-18T13:03:14;10.00;;;6.87;;
20042;SDS011;10182;52.896;6.496;2022-12-18T13:08:34;9.83;;;7.50;;
20042;SDS011;10182;52.896;6.496;2022-12-18T13:13:54;9.00;;;6.73;;
20042;SDS011;10182;52.896;6.496;2022-12-18T13:18:57;10.57;;;7.23;;
20042;SDS011;10182;52.896;6.496;2022-12-18T13:24:14;10.17;;;7.10;;
20042;SDS011;10182;52.896;6.496;2022-12-18T13:29:40;10.23;;;7.03;;
20042;SDS011;10182;52.896;6.496;2022-12-18T13:34:43;8.90;;;6.57;;
20042;SDS011;10182;52.896;6.496;2022-12-18T13:39:46;13.00;;;8.60;;
20042;SDS011;10182;52.896;6.496;2022-12-18T13:44:48;11.97;;;7.50;;
20042;SDS011;10182;52.896;6.496;2022-12-18T13:49:50;9.03;;;6.83;;
20042;SDS011;10182;52.896;6.496;2022-12-18T13:54:54;9.37;;;6.83;;
20042;SDS011;10182;52.896;6.496;2022-12-18T13:59:57;8.40;;;6.90;;
20042;SDS011;10182;52.896;6.496;2022-12-18T14:05:00;10.73;;;8.03;;
20042;SDS011;10182;52.896;6.496;2022-12-18T14:10:04;9.10;;;6.90;;
20042;SDS011;10182;52.896;6.496;2022-12-18T14:15:16;10.53;;;7.77;;
20042;SDS011;10182;52.896;6.496;2022-12-18T14:20:26;9.63;;;7.47;;
20042;SDS011;10182;52.896;6.496;2022-12-18T14:25:30;10.50;;;7.80;;
20042;SDS011;10182;52.896;6.496;2022-12-18T14:30:33;11.47;;;7.50;;
20042;SDS011;10182;52.896;6.496;2022-12-18T14:35:38;10.77;;;8.17;;
20042;SDS011;10182;52.896;6.496;2022-12-18T14:40:41;11.33;;;8.63;;
20042;SDS011;10182;52.896;6.496;2022-12-18T14:45:43;11.33;;;9.00;;
20042;SDS011;10182;52.896;6.496;2022-12-18T14:50:53;9.40;;;7.70;;
20042;SDS011;10182;52.896;6.496;2022-12-18T14:55:58;11.97;;;8.83;;
20042;SDS011;10182;52.896;6.496;2022-12-18T15:01:01;14.43;;;9.20;;
20042;SDS011;10182;52.896;6.496;2022-12-18T15:06:15;12.23;;;8.67;;
20042;SDS011;10182;52.896;6.496;2022-12-18T15:11:34;15.40;;;9.83;;
20042;SDS011;10182;52.896;6.496;2022-12-18T15:16:44;12.13;;;9.33;;
20042;SDS011;10182;52.896;6.496;2022-12-18T15:21:51;11.27;;;8.30;;
20042;SDS011;10182;52.896;6.496;2022-12-18T15:26:54;14.07;;;10.37;;
20042;SDS011;10182;52.896;6.496;2022-12-18T15:32:03;19.47;;;10.90;;
20042;SDS011;10182;52.896;6.496;2022-12-18T15:37:06;18.33;;;12.37;;
20042;SDS011;10182;52.896;6.496;2022-12-18T15:42:10;14.33;;;9.73;;
20042;SDS011;10182;52.896;6.496;2022-12-18T15:47:29;15.57;;;10.83;;
20042;SDS011;10182;52.896;6.496;2022-12-18T15:52:31;13.23;;;10.17;;
20042;SDS011;10182;52.896;6.496;2022-12-18T15:57:41;15.67;;;11.13;;
20042;SDS011;10182;52.896;6.496;2022-12-18T16:02:43;14.00;;;10.33;;
20042;SDS011;10182;52.896;6.496;2022-12-18T16:07:45;14.77;;;10.50;;
20042;SDS011;10182;52.896;6.496;2022-12-18T16:12:48;16.63;;;11.57;;
20042;SDS011;10182;52.896;6.496;2022-12-18T16:17:50;15.27;;;10.80;;
20042;SDS011;10182;52.896;6.496;2022-12-18T16:22:52;15.43;;;10.43;;
20042;SDS011;10182;52.896;6.496;2022-12-18T16:27:56;15.47;;;11.47;;
20042;SDS011;10182;52.896;6.496;2022-12-18T16:32:58;18.83;;;11.50;;
20042;SDS011;10182;52.896;6.496;2022-12-18T16:37:59;13.47;;;10.40;;
20042;SDS011;10182;52.896;6.496;2022-12-18T16:43:03;14.50;;;10.80;;
20042;SDS011;10182;52.896;6.496;2022-12-18T16:48:04;15.90;;;11.47;;
20042;SDS011;10182;52.896;6.496;2022-12-18T16:53:06;13.90;;;11.23;;
20042;SDS011;10182;52.896;6.496;2022-12-18T16:58:09;17.43;;;12.83;;
20042;SDS011;10182;52.896;6.496;2022-12-18T17:03:11;14.87;;;11.07;;
20042;SDS011;10182;52.896;6.496;2022-12-18T17:08:15;15.97;;;11.70;;
20042;SDS011;10182;52.896;6.496;2022-12-18T17:13:18;16.77;;;12.00;;
20042;SDS011;10182;52.896;6.496;2022-12-18T17:18:20;14.70;;;11.77;;
20042;SDS011;10182;52.896;6.496;2022-12-18T17:23:22;16.00;;;10.90;;
20042;SDS011;10182;52.896;6.496;2022-12-18T17:28:25;15.20;;;11.50;;
20042;SDS011;10182;52.896;6.496;2022-12-18T17:33:27;14.13;;;10.80;;
20042;SDS011;10182;52.896;6.496;2022-12-18T17:38:29;15.13;;;12.30;;
20042;SDS011;10182;52.896;6.496;2022-12-18T17:43:32;16.57;;;11.67;;
20042;SDS011;10182;52.896;6.496;2022-12-18T17:48:35;15.83;;;11.63;;
20042;SDS011;10182;52.896;6.496;2022-12-18T17:53:36;14.50;;;11.83;;
20042;SDS011;10182;52.896;6.496;2022-12-18T17:58:41;16.47;;;11.80;;
20042;SDS011;10182;52.896;6.496;2022-12-18T18:03:43;15.33;;;12.40;;
20042;SDS011;10182;52.896;6.496;2022-12-18T18:08:46;16.40;;;12.30;;
20042;SDS011;10182;52.896;6.496;2022-12-18T18:13:49;16.93;;;12.10;;
20042;SDS011;10182;52.896;6.496;2022-12-18T18:19:01;16.20;;;12.30;;
20042;SDS011;10182;52.896;6.496;2022-12-18T18:24:04;18.87;;;14.57;;
20042;SDS011;10182;52.896;6.496;2022-12-18T18:29:12;19.60;;;12.93;;
20042;SDS011;10182;52.896;6.496;2022-12-18T18:34:16;15.23;;;11.43;;
20042;SDS011;10182;52.896;6.496;2022-12-18T18:39:18;14.27;;;11.53;;
20042;SDS011;10182;52.896;6.496;2022-12-18T18:44:22;14.70;;;11.80;;
20042;SDS011;10182;52.896;6.496;2022-12-18T18:49:24;14.87;;;11.30;;
20042;SDS011;10182;52.896;6.496;2022-12-18T18:54:26;15.03;;;12.77;;
20042;SDS011;10182;52.896;6.496;2022-12-18T18:59:29;13.13;;;11.43;;
20042;SDS011;10182;52.896;6.496;2022-12-18T19:04:31;16.10;;;11.07;;
20042;SDS011;10182;52.896;6.496;2022-12-18T19:09:34;16.70;;;11.13;;
20042;SDS011;10182;52.896;6.496;2022-12-18T19:14:38;15.47;;;11.17;;
20042;SDS011;10182;52.896;6.496;2022-12-18T19:19:39;14.70;;;11.77;;
20042;SDS011;10182;52.896;6.496;2022-12-18T19:24:41;14.90;;;11.57;;
20042;SDS011;10182;52.896;6.496;2022-12-18T19:29:44;14.43;;;12.13;;
20042;SDS011;10182;52.896;6.496;2022-12-18T19:34:46;15.67;;;13.23;;
20042;SDS011;10182;52.896;6.496;2022-12-18T19:39:47;16.43;;;11.97;;
20042;SDS011;10182;52.896;6.496;2022-12-18T19:44:51;14.87;;;12.17;;
20042;SDS011;10182;52.896;6.496;2022-12-18T19:49:52;18.93;;;14.50;;
20042;SDS011;10182;52.896;6.496;2022-12-18T19:54:54;18.80;;;14.20;;
20042;SDS011;10182;52.896;6.496;2022-12-18T19:59:57;17.77;;;13.70;;
20042;SDS011;10182;52.896;6.496;2022-12-18T20:04:59;20.83;;;15.17;;
20042;SDS011;10182;52.896;6.496;2022-12-18T20:10:00;21.77;;;15.03;;
20042;SDS011;10182;52.896;6.496;2022-12-18T20:15:04;18.87;;;14.93;;
20042;SDS011;10182;52.896;6.496;2022-12-18T20:20:07;20.23;;;14.30;;
20042;SDS011;10182;52.896;6.496;2022-12-18T20:25:10;19.97;;;15.33;;
20042;SDS011;10182;52.896;6.496;2022-12-18T20:30:13;24.37;;;17.47;;
20042;SDS011;10182;52.896;6.496;2022-12-18T20:35:15;20.97;;;15.97;;
20042;SDS011;10182;52.896;6.496;2022-12-18T20:40:17;23.73;;;16.30;;
20042;SDS011;10182;52.896;6.496;2022-12-18T20:45:21;26.93;;;18.93;;
20042;SDS011;10182;52.896;6.496;2022-12-18T20:50:22;22.87;;;17.00;;
20042;SDS011;10182;52.896;6.496;2022-12-18T20:55:24;24.80;;;18.90;;
20042;SDS011;10182;52.896;6.496;2022-12-18T21:00:30;28.67;;;19.00;;
20042;SDS011;10182;52.896;6.496;2022-12-18T21:05:31;26.33;;;18.17;;
20042;SDS011;10182;52.896;6.496;2022-12-18T21:10:33;28.50;;;19.43;;
20042;SDS011;10182;52.896;6.496;2022-12-18T21:15:36;30.40;;;20.33;;
20042;SDS011;10182;52.896;6.496;2022-12-18T21:20:38;32.90;;;21.80;;
20042;SDS011;10182;52.896;6.496;2022-12-18T21:25:39;29.63;;;19.43;;
20042;SDS011;10182;52.896;6.496;2022-12-18T21:30:42;32.70;;;20.03;;
20042;SDS011;10182;52.896;6.496;2022-12-18T21:35:44;25.97;;;19.13;;
20042;SDS011;10182;52.896;6.496;2022-12-18T21:40:46;30.43;;;19.13;;
20042;SDS011;10182;52.896;6.496;2022-12-18T21:45:49;29.37;;;19.53;;
20042;SDS011;10182;52.896;6.496;2022-12-18T21:50:50;30.53;;;20.10;;
20042;SDS011;10182;52.896;6.496;2022-12-18T21:55:56;32.07;;;21.10;;
20042;SDS011;10182;52.896;6.496;2022-12-18T22:00:59;32.33;;;22.10;;
20042;SDS011;10182;52.896;6.496;2022-12-18T22:06:01;30.23;;;19.73;;
20042;SDS011;10182;52.896;6.496;2022-12-18T22:11:02;29.30;;;21.53;;
20042;SDS011;10182;52.896;6.496;2022-12-18T22:16:06;31.33;;;22.87;;
20042;SDS011;10182;52.896;6.496;2022-12-18T22:21:19;29.90;;;21.93;;
20042;SDS011;10182;52.896;6.496;2022-12-18T22:26:23;33.77;;;22.13;;
20042;SDS011;10182;52.896;6.496;2022-12-18T22:31:27;37.23;;;23.87;;
20042;SDS011;10182;52.896;6.496;2022-12-18T22:36:33;32.77;;;23.27;;
20042;SDS011;10182;52.896;6.496;2022-12-18T22:41:36;36.53;;;23.93;;
20042;SDS011;10182;52.896;6.496;2022-12-18T22:46:39;33.40;;;23.23;;
20042;SDS011;10182;52.896;6.496;2022-12-18T22:51:44;36.93;;;24.07;;
20042;SDS011;10182;52.896;6.496;2022-12-18T22:56:47;36.97;;;23.67;;
20042;SDS011;10182;52.896;6.496;2022-12-18T23:01:50;34.60;;;23.37;;
20042;SDS011;10182;52.896;6.496;2022-12-18T23:06:52;37.43;;;24.40;;
20042;SDS011;10182;52.896;6.496;2022-12-18T23:11:54;39.33;;;24.20;;
20042;SDS011;10182;52.896;6.496;2022-12-18T23:16:57;35.17;;;24.30;;
20042;SDS011;10182;52.896;6.496;2022-12-18T23:21:59;39.10;;;24.27;;
20042;SDS011;10182;52.896;6.496;2022-12-18T23:27:01;36.50;;;23.83;;
20042;SDS011;10182;52.896;6.496;2022-12-18T23:32:04;38.53;;;25.33;;
20042;SDS011;10182;52.896;6.496;2022-12-18T23:37:06;39.77;;;24.53;;
20042;SDS011;10182;52.896;6.496;2022-12-18T23:42:07;37.73;;;24.27;;
20042;SDS011;10182;52.896;6.496;2022-12-18T23:47:10;37.27;;;25.10;;
20042;SDS011;10182;52.896;6.496;2022-12-18T23:52:12;39.20;;;25.27;;
20042;SDS011;10182;52.896;6.496;2022-12-18T23:57:14;40.63;;;25.70;;
